Latest Weather Observations for Cape Bruny AWS

IDT60901

Issued at 5:11 am EST Sunday 24 July 2016 (issued every 10 minutes, with the page automatically refreshed every 10 minutes)

About weather observations | Map of Hobart area stations | Latest observations for Hobart area | Other Formats
Station Details ID: 094198 Name: CAPE BRUNY (CAPE BRUNY) Lat: -43.49 Lon: 147.14 Height: 59.7 m
Data from the previous 72 hours. | See also: Recent months at Cape Bruny AWS
Date/Time
EST
Temp
°C
App
Temp
°C
Dew
Point
°C
Rel
Hum
%
Delta-T
°C
Wind Press
QNH
hPa
Press
MSL
hPa
Rain since
9am
mm
Dir  Spd
km/h
Gust
km/h
Spd
kts
Gust
kts
24/05:00am 4.7 -1.5 2.2 84 1.0 WNW 24 35 13 19 1002.8 1002.8 5.8
24/04:30am 4.2 -2.4 1.9 85 0.9 NW 26 32 14 17 1002.8 1002.8 5.8
24/04:00am 4.3 -1.9 2.0 85 0.9 WNW 24 33 13 18 1002.7 1002.7 5.8
24/03:30am 4.4 -3.6 1.9 84 1.0 WNW 33 46 18 25 1002.7 1002.7 5.4
24/03:00am 4.8 -3.1 2.2 83 1.1 WNW 33 44 18 24 1002.4 1002.4 5.0
24/02:30am 5.1 -4.9 2.3 82 1.1 WNW 44 67 24 36 1002.6 1002.6 4.6
24/02:28am 5.3 -4.1 2.5 82 1.1 WNW 41 65 22 35 1002.5 1002.5 4.6
24/02:00am 4.8 -4.5 0.9 76 1.5 WNW 39 50 21 27 1002.5 1002.5 4.6
24/01:30am 4.8 -3.5 2.0 82 1.1 W 35 41 19 22 1002.3 1002.3 4.6
24/01:00am 4.6 -3.7 2.3 85 0.9 W 35 44 19 24 1002.1 1002.1 4.6
24/12:41am 5.4 -5.9 1.5 76 1.6 WNW 50 69 27 37 1001.9 1001.9 4.0
24/12:30am 6.0 -4.1 1.3 72 1.9 W 44 59 24 32 1001.9 1001.9 4.0
24/12:00am 6.0 -5.0 0.8 69 2.1 W 48 57 26 31 1001.7 1001.8 4.0
 
Date/Time
EST
Temp
°C
App
Temp
°C
Dew
Point
°C
Rel
Hum
%
Delta-T
°C
Wind Press
QNH
hPa
Press
MSL
hPa
Rain since
9am
mm
Dir  Spd
km/h
Gust
km/h
Spd
kts
Gust
kts
23/11:30pm 6.1 -5.8 -0.2 64 2.4 W 52 67 28 36 1001.4 1001.5 4.0
23/11:10pm 5.9 -4.2 0.3 67 2.2 W 43 61 23 33 1001.3 1001.4 4.0
23/11:00pm 6.6 -4.1 -0.1 62 2.6 W 46 57 25 31 1001.3 1001.4 4.0
23/10:30pm 6.4 -3.7 0.1 64 2.4 W 43 57 23 31 1000.6 1000.7 4.0
23/10:00pm 4.9 -7.3 0.1 71 1.8 W 54 78 29 42 1000.4 1000.5 4.0
23/09:51pm 4.8 -6.3 -0.2 70 1.9 W 48 76 26 41 1000.5 1000.6 3.8
23/09:30pm 5.1 -6.7 0.1 70 1.9 W 52 67 28 36 1000.0 1000.1 3.8
23/09:24pm 5.3 -8.3 -0.3 67 2.1 W 61 82 33 44 999.9 1000.0 3.8
23/09:02pm 6.3 -5.3 1.6 72 1.9 WSW 52 91 28 49 999.7 999.8 3.8
23/09:01pm 6.4 -4.9 1.1 69 2.1 SW 50 89 27 48 1000.1 1000.2 3.8
23/09:00pm 6.6 -4.0 0.7 66 2.3 SW 46 65 25 35 1000.2 1000.3 3.8
23/08:31pm 6.6 -4.5 0.3 64 2.5 WSW 48 67 26 36 999.8 999.9 3.8
23/08:30pm 6.8 -4.8 -1.1 57 3.0 WSW 50 67 27 36 999.7 999.8 3.8
23/08:04pm 5.2 -6.6 0.2 70 1.9 WSW 52 95 28 51 999.1 999.2 3.8
23/08:01pm 5.8 -5.3 0.2 67 2.2 WSW 48 69 26 37 998.9 999.0 3.8
23/08:00pm 5.6 -5.5 -0.2 66 2.2 WSW 48 65 26 35 998.9 999.0 3.8
23/07:30pm 5.4 -7.2 1.3 75 1.6 WSW 57 87 31 47 998.2 998.3 3.6
23/07:00pm 6.4 -8.5 -1.0 59 2.8 WSW 67 95 36 51 996.7 996.8 3.6
23/06:37pm 5.0 -10.0 0.8 74 1.6 WSW 69 100 37 54 996.2 996.3 3.6
23/06:36pm 4.7 -10.3 0.8 76 1.5 WSW 69 100 37 54 996.3 996.4 3.6
23/06:34pm 4.7 -10.0 -0.1 71 1.8 WSW 67 100 36 54 996.1 996.2 3.4
23/06:33pm 5.2 -9.1 0.4 71 1.9 WSW 65 100 35 54 995.9 996.0 3.2
23/06:32pm 5.8 -8.1 0.2 67 2.2 WSW 63 100 34 54 995.9 996.0 3.2
23/06:30pm 6.8 -6.4 -0.2 61 2.7 WSW 59 82 32 44 996.0 996.1 3.2
23/06:00pm 5.1 -9.1 -1.6 62 2.5 SW 63 91 34 49 995.9 996.0 3.2
23/05:30pm 6.5 -7.8 0.0 63 2.5 WSW 65 85 35 46 994.6 994.7 3.2
23/05:05pm 6.2 -7.8 -0.5 62 2.6 WSW 63 98 34 53 993.9 994.0 3.2
23/05:00pm 5.8 -7.8 -0.5 64 2.4 WSW 61 80 33 43 993.9 994.0 3.2
23/04:37pm 5.8 -6.7 1.7 75 1.6 SW 57 96 31 52 993.2 993.3 3.2
23/04:36pm 5.7 -6.7 1.2 73 1.8 SW 56 96 30 52 993.1 993.2 3.2
23/04:30pm 5.3 -7.4 0.5 71 1.9 SW 57 95 31 51 993.3 993.4 3.2
23/04:27pm 5.2 -9.5 0.2 70 1.9 SW 67 98 36 53 993.3 993.4 3.2
23/04:26pm 5.1 -9.9 0.5 72 1.8 SW 69 98 37 53 993.3 993.4 3.2
23/04:19pm 4.8 -8.8 -0.2 70 1.9 SW 61 98 33 53 993.3 993.4 3.0
23/04:00pm 5.5 -8.6 -0.8 64 2.4 WSW 63 83 34 45 992.4 992.5 3.0
23/03:30pm 4.9 -7.0 1.9 81 1.2 W 54 74 29 40 991.5 991.6 2.8
23/03:00pm 5.0 -8.4 1.1 76 1.6 WSW 61 82 33 44 990.6 990.7 2.8
23/02:30pm 4.0 -10.5 1.4 83 1.0 WSW 67 93 36 50 989.7 989.7 2.4
23/02:28pm 4.6 -9.8 2.1 84 1.0 WSW 67 93 36 50 990.1 990.1 2.4
23/02:25pm 3.9 -11.1 1.6 85 0.9 WSW 70 93 38 50 990.1 990.1 2.4
23/02:18pm 4.0 -9.7 1.4 83 1.0 WSW 63 98 34 53 989.9 989.9 2.2
23/02:16pm 4.0 -8.6 1.2 82 1.1 WSW 57 98 31 53 989.7 989.7 2.2
23/02:14pm 4.2 -7.8 1.7 84 1.0 WSW 54 98 29 53 989.7 989.7 2.2
23/02:08pm 4.0 -8.0 1.7 85 0.9 W 54 72 29 39 990.0 990.0 1.8
23/02:00pm 4.2 -7.9 1.1 80 1.2 W 54 67 29 36 989.2 989.2 1.6
23/01:31pm 4.4 -8.0 1.3 80 1.2 W 56 74 30 40 988.9 988.9 1.6
23/01:30pm 4.5 -8.1 1.5 81 1.2 W 57 74 31 40 988.8 988.8 1.6
23/01:00pm 5.9 -8.3 0.7 69 2.1 WSW 65 87 35 47 988.1 988.1 1.0
23/12:56pm 6.2 -7.0 -0.3 63 2.5 WSW 59 85 32 46 987.9 987.9 1.0
23/12:52pm 6.0 -6.6 -0.1 65 2.3 W 56 80 30 43 988.0 988.0 1.0
23/12:49pm 5.9 -6.1 1.8 75 1.7 W 54 78 29 42 988.0 988.0 1.0
23/12:48pm 5.8 -6.6 1.5 74 1.7 W 56 78 30 42 988.0 988.0 1.0
23/12:30pm 4.7 -9.5 0.8 76 1.5 WSW 65 85 35 46 987.7 987.7 1.0
23/12:20pm 4.7 -9.4 1.4 79 1.3 WSW 65 95 35 51 987.7 987.7 0.8
23/12:06pm 4.4 -9.8 1.1 79 1.3 W 65 95 35 51 987.3 987.3 0.8
23/12:05pm 4.5 -9.4 0.6 76 1.5 W 63 95 34 51 987.3 987.3 0.8
23/12:00pm 5.4 -7.2 1.5 76 1.6 W 57 78 31 42 987.0 987.0 0.8
23/11:34am 5.7 -8.1 1.2 73 1.8 W 63 87 34 47 986.6 986.6 0.6
23/11:30am 6.2 -7.2 1.1 70 2.0 W 61 87 33 47 986.3 986.3 0.6
23/11:02am 5.0 -7.1 -1.4 63 2.4 W 52 70 28 38 986.3 986.3 0.6
23/11:00am 5.1 -7.2 -0.5 67 2.1 W 54 70 29 38 986.3 986.3 0.6
23/10:37am 3.7 -9.0 0.8 81 1.1 W 57 87 31 47 986.5 986.5 0.6
23/10:34am 3.2 -9.9 0.6 83 1.0 W 59 87 32 47 986.4 986.4 0.6
23/10:33am 3.1 -10.0 0.3 82 1.1 W 59 87 32 47 986.4 986.4 0.6
23/10:31am 3.5 -9.7 -0.1 77 1.3 W 59 87 32 47 986.1 986.1 0.4
23/10:30am 4.1 -8.7 -0.1 74 1.6 W 57 87 31 47 986.2 986.2 0.2
23/10:11am 5.4 -7.7 0.6 71 1.9 W 59 78 32 42 986.1 986.1 0.2
23/10:00am 4.8 -8.3 0.6 74 1.6 W 59 76 32 41 986.0 986.0 0.2
23/09:59am 4.6 -8.2 0.4 74 1.6 W 57 76 31 41 986.0 986.0 0.2
23/09:38am 4.2 -7.1 0.9 79 1.3 W 50 80 27 43 985.9 985.9 0.2
23/09:30am 4.2 -7.1 0.9 79 1.3 W 50 65 27 35 986.0 986.0 0.2
23/09:11am 4.2 -6.3 1.6 83 1.0 W 46 82 25 44 985.6 985.6 0.2
23/09:10am 4.3 -5.7 2.0 85 0.9 W 44 82 24 44 985.5 985.5 0.2
23/09:08am 4.2 -5.2 2.1 86 0.8 W 41 67 22 36 985.7 985.7 0.2
23/09:00am 3.6 -6.4 1.3 85 0.9 W 43 54 23 29 985.8 985.8 13.2
23/08:56am 4.1 -5.8 1.8 85 0.9 W 43 56 23 30 985.6 985.6 13.2
23/08:34am 3.4 -5.4 1.4 87 0.8 WNW 37 76 20 41 985.6 985.6 13.0
23/08:32am 3.9 -4.2 1.3 83 1.0 WNW 33 50 18 27 985.6 985.6 12.8
23/08:30am 3.7 -4.4 0.9 82 1.1 WNW 33 44 18 24 985.3 985.3 12.8
23/08:00am 4.1 -6.2 2.6 90 0.6 WNW 46 54 25 29 984.7 984.7 12.6
23/07:45am 3.6 -8.7 2.1 90 0.6 W 56 74 30 40 984.8 984.8 12.6
23/07:39am 3.9 -6.4 2.4 90 0.6 W 46 74 25 40 984.4 984.5 12.2
23/07:36am 4.2 -4.7 2.9 91 0.5 W 39 59 21 32 984.7 984.7 12.2
23/07:30am 3.6 -4.3 2.3 91 0.5 W 33 44 18 24 984.4 984.5 12.2
23/07:00am 3.0 -6.1 1.7 91 0.5 W 39 48 21 26 984.2 984.3 11.8
23/06:55am 3.2 -5.9 2.0 92 0.5 W 39 57 21 31 984.3 984.4 11.8
23/06:45am 2.9 -10.8 1.7 92 0.5 W 63 89 34 48 984.4 984.5 11.8
23/06:43am 2.7 -11.8 1.5 92 0.5 W 67 89 36 48 984.4 984.5 11.6
23/06:38am 2.9 -9.7 1.4 90 0.6 W 57 89 31 48 984.0 984.1 11.4
23/06:35am 3.9 -7.2 2.6 91 0.5 W 50 72 27 39 984.0 984.1 11.0
23/06:30am 3.9 -6.8 2.7 92 0.5 W 48 61 26 33 983.7 983.8 10.8
23/06:11am 3.7 -7.1 2.1 89 0.6 W 48 72 26 39 983.4 983.5 10.4
23/06:00am 3.6 -8.9 1.8 88 0.7 W 57 83 31 45 983.3 983.4 10.0
23/05:46am 4.5 -6.8 3.2 91 0.5 WSW 52 70 28 38 982.9 983.0 9.4
23/05:30am 4.5 -7.2 3.2 91 0.5 W 54 65 29 35 982.6 982.7 9.0
23/05:00am 3.8 -5.2 2.6 92 0.5 W 39 57 21 31 982.2 982.3 8.6
23/04:58am 3.9 -4.3 2.9 93 0.4 W 35 56 19 30 982.3 982.4 8.6
23/04:30am 3.7 -6.7 2.2 90 0.6 WNW 46 59 25 32 982.3 982.4 6.4
23/04:19am 3.9 -5.6 1.9 87 0.8 WNW 41 65 22 35 981.8 981.9 5.2
23/04:00am 4.4 -3.5 2.4 87 0.8 WNW 33 46 18 25 981.5 981.6 4.8
23/03:42am 4.6 -4.4 2.3 85 0.9 WNW 39 57 21 31 981.6 981.7 4.6
23/03:30am 4.7 -3.6 2.4 85 0.9 NW 35 46 19 25 981.7 981.8 4.6
23/03:09am 6.1 -0.9 1.8 74 1.7 NW 28 54 15 29 981.8 981.9 4.2
23/03:00am 6.3 0.8 2.0 74 1.8 WNW 20 30 11 16 981.8 981.9 4.2
23/02:30am 6.3 0.7 1.4 71 2.0 NNW 20 33 11 18 982.0 982.1 4.2
23/02:00am 5.7 0.7 1.4 74 1.7 N 17 28 9 15 982.2 982.3 4.2
23/01:30am 6.2 1.9 1.1 70 2.0 NNW 13 22 7 12 982.7 982.8 4.2
23/01:22am 6.2 -0.9 1.3 71 2.0 NW 28 46 15 25 982.8 982.9 4.2
23/01:09am 6.1 0.7 1.1 70 2.0 NW 19 41 10 22 982.8 982.9 4.2
23/01:00am 5.5 0.8 0.7 71 1.9 NNW 15 24 8 13 982.9 983.0 4.2
23/12:30am 5.6 0.2 1.3 74 1.7 WNW 19 28 10 15 983.5 983.6 4.2
23/12:00am 6.3 0.7 1.2 70 2.1 NW 20 35 11 19 983.5 983.6 4.2
 
Date/Time
EST
Temp
°C
App
Temp
°C
Dew
Point
°C
Rel
Hum
%
Delta-T
°C
Wind Press
QNH
hPa
Press
MSL
hPa
Rain since
9am
mm
Dir  Spd
km/h
Gust
km/h
Spd
kts
Gust
kts
22/11:30pm 6.5 0.3 2.2 74 1.8 WNW 24 32 13 17 983.9 984.0 4.2
22/11:00pm 6.6 -2.4 2.7 76 1.6 WNW 39 50 21 27 983.9 984.0 4.2
22/10:30pm 7.0 -1.2 2.7 74 1.8 WNW 35 48 19 26 984.1 984.2 4.2
22/10:00pm 6.7 -0.9 2.8 76 1.7 WNW 32 43 17 23 984.3 984.4 4.2
22/09:30pm 6.3 -1.6 2.2 75 1.7 NW 33 46 18 25 984.8 984.8 4.2
22/09:00pm 7.2 -2.1 2.7 73 1.9 W 41 50 22 27 984.4 984.5 4.2
22/08:30pm 7.1 -2.6 3.9 80 1.4 W 44 56 24 30 983.9 984.0 4.2
22/08:00pm 6.3 -4.7 2.8 78 1.5 W 50 61 27 33 984.0 984.1 4.2
22/07:34pm 6.7 -6.2 3.9 82 1.2 W 61 82 33 44 983.8 983.9 4.0
22/07:30pm 6.8 -5.8 3.4 79 1.4 W 59 76 32 41 983.8 983.9 4.0
22/07:20pm 6.5 -4.0 3.7 82 1.2 W 48 72 26 39 983.7 983.8 4.0
22/07:00pm 6.9 -3.8 4.4 84 1.1 W 50 63 27 34 983.1 983.2 3.6
22/06:30pm 6.2 -5.9 4.2 87 0.9 W 57 83 31 45 982.6 982.7 3.4
22/06:04pm 7.7 -3.8 4.5 80 1.4 W 54 72 29 39 981.3 981.4 2.8
22/06:00pm 7.5 -3.6 4.5 81 1.3 W 52 65 28 35 981.0 981.1 2.8
22/05:38pm 7.4 -5.2 5.4 87 0.9 W 61 93 33 50 981.0 981.1 2.8
22/05:30pm 7.2 -5.9 5.0 86 1.0 W 63 93 34 50 980.5 980.6 2.8
22/05:28pm 7.6 -5.0 5.7 88 0.9 W 61 83 33 45 980.4 980.5 2.8
22/05:26pm 7.5 -4.7 5.5 87 0.9 W 59 80 32 43 980.4 980.5 2.8
22/05:11pm 7.4 -2.5 5.0 85 1.1 WNW 46 69 25 37 979.6 979.7 2.4
22/05:00pm 7.8 -1.4 5.4 85 1.1 WNW 43 56 23 30 979.0 979.1 2.2
22/04:36pm 8.4 -2.0 5.9 84 1.1 W 50 69 27 37 978.7 978.8 1.2
22/04:30pm 8.8 -2.1 5.4 79 1.5 W 52 69 28 37 978.4 978.5 0.6
22/04:04pm 9.7 2.3 5.1 73 2.1 WNW 33 52 18 28 977.4 977.5 0.6
22/04:00pm 10.0 2.6 4.8 70 2.4 WNW 33 46 18 25 977.4 977.5 0.6
22/03:57pm 10.4 2.3 5.2 70 2.4 W 37 48 20 26 977.6 977.7 0.6
22/03:30pm 10.1 1.0 6.1 76 1.9 W 43 54 23 29 977.2 977.3 0.6
22/03:25pm 11.0 2.0 6.2 72 2.2 W 43 52 23 28 977.1 977.2 0.6
22/03:05pm 10.2 1.9 6.2 76 1.9 WNW 39 57 21 31 976.9 977.0 0.6
22/03:00pm 10.4 2.2 6.5 77 1.9 WNW 39 54 21 29 976.9 977.0 0.4
22/02:30pm 10.4 2.3 6.9 79 1.7 NW 39 57 21 31 976.5 976.6 0.2
22/02:17pm 11.1 1.7 5.6 69 2.5 NW 44 63 24 34 976.5 976.6 0.0
22/02:00pm 11.7 3.0 5.8 67 2.8 NW 41 57 22 31 975.6 975.6 0.0
22/01:30pm 10.2 2.0 6.4 77 1.8 NW 39 59 21 32 976.7 976.8 0.0
22/01:06pm 12.6 3.3 5.8 63 3.2 NW 44 67 24 36 977.3 977.4 0.0
22/01:00pm 13.0 5.3 5.4 60 3.6 NW 35 57 19 31 977.2 977.3 0.0
22/12:56pm 12.8 6.5 5.7 62 3.3 NW 28 52 15 28 977.3 977.4 0.0
22/12:30pm 13.4 8.8 6.7 64 3.2 NW 20 28 11 15 978.0 978.1 0.0
22/12:00pm 13.6 7.9 6.9 64 3.3 NW 26 39 14 21 978.9 979.0 0.0
22/11:30am 12.9 3.9 6.5 65 3.1 NW 43 61 23 33 980.2 980.3 0.0
22/11:00am 12.9 4.3 6.3 64 3.2 NW 41 61 22 33 981.0 981.1 0.0
22/10:43am 13.3 4.5 5.7 60 3.6 WNW 41 59 22 32 981.2 981.3 0.0
22/10:30am 13.3 5.8 6.4 63 3.3 NW 35 50 19 27 981.3 981.4 0.0
22/10:04am 13.4 7.3 6.7 64 3.2 WNW 28 56 15 30 981.6 981.7 0.0
22/10:00am 13.4 8.2 7.2 66 3.1 WNW 24 35 13 19 981.7 981.8 0.0
22/09:30am 13.0 5.8 7.7 70 2.6 WNW 35 52 19 28 982.0 982.1 0.0
22/09:00am 12.7 5.6 8.0 73 2.4 W 35 44 19 24 982.2 982.3 4.0
22/08:42am 12.4 3.7 8.3 76 2.0 W 44 63 24 34 982.0 982.1 4.0
22/08:30am 12.8 4.1 8.3 74 2.2 W 44 63 24 34 981.9 982.0 4.0
22/08:16am 12.9 7.4 9.0 77 2.0 W 28 52 15 28 982.3 982.4 4.0
22/08:00am 13.1 6.7 9.2 77 2.0 NW 33 44 18 24 982.3 982.4 3.8
22/07:45am 12.8 6.6 9.4 80 1.7 NW 32 50 17 27 982.0 982.1 3.8
22/07:30am 11.8 7.1 9.4 85 1.2 NNW 24 39 13 21 981.9 982.0 3.8
22/07:00am 11.0 6.3 9.1 88 1.0 NNW 24 35 13 19 981.6 981.7 3.8
22/06:30am 10.7 6.3 8.8 88 0.9 N 22 35 12 19 982.0 982.1 3.8
22/06:13am 11.1 5.6 9.2 88 1.0 N 28 43 15 23 982.0 982.1 3.8
22/06:00am 10.4 7.3 9.0 91 0.7 N 15 22 8 12 982.5 982.6 3.8
22/05:30am 10.3 7.2 8.9 91 0.7 NNE 15 24 8 13 983.1 983.2 2.8
22/05:00am 10.1 6.2 8.5 90 0.8 NNE 19 28 10 15 984.4 984.5 2.6
22/04:30am 10.1 6.5 8.4 89 0.8 NNE 17 37 9 20 985.1 985.1 2.0
22/04:00am 10.1 5.1 8.2 88 0.9 NNE 24 37 13 20 986.6 986.6 1.6
22/03:30am 9.9 5.2 7.8 87 1.0 NNE 22 44 12 24 987.5 987.5 1.0
22/03:24am 9.9 5.6 7.7 86 1.1 NNE 20 44 11 24 987.9 987.9 1.0
22/03:00am 10.1 6.2 7.3 83 1.4 NNE 17 28 9 15 989.9 989.9 0.6
22/02:30am 10.5 6.1 6.6 77 1.8 NE 19 28 10 15 991.3 991.4 0.0
22/02:00am 10.3 6.7 6.6 78 1.8 NNE 15 20 8 11 993.1 993.2 0.0
22/01:30am 11.1 7.0 6.0 71 2.4 N 17 24 9 13 994.5 994.6 0.0
22/01:00am 10.3 8.0 5.9 74 2.1 N 7 15 4 8 995.4 995.5 0.0
22/12:30am 9.9 6.5 5.7 75 1.9 NE 13 19 7 10 996.2 996.3 0.0
22/12:00am 9.7 5.4 5.3 74 2.0 ENE 17 24 9 13 996.8 996.9 0.0
 
Date/Time
EST
Temp
°C
App
Temp
°C
Dew
Point
°C
Rel
Hum
%
Delta-T
°C
Wind Press
QNH
hPa
Press
MSL
hPa
Rain since
9am
mm
Dir  Spd
km/h
Gust
km/h
Spd
kts
Gust
kts
21/11:30pm 10.0 5.6 4.8 70 2.3 NNE 17 22 9 12 998.6 998.7 0.0
21/11:00pm 10.0 5.1 5.0 71 2.3 N 20 28 11 15 999.1 999.2 0.0
21/10:30pm 9.5 6.3 5.1 74 2.0 NE 11 19 6 10 1000.0 1000.1 0.0
21/10:00pm 10.0 6.0 5.0 71 2.3 N 15 24 8 13 1001.0 1001.1 0.0
21/09:30pm 9.8 5.4 5.0 72 2.2 N 17 24 9 13 1001.0 1001.1 0.0
21/09:00pm 9.5 5.7 4.1 69 2.4 NNE 13 19 7 10 1001.2 1001.3 0.0
21/08:30pm 9.6 5.9 4.4 70 2.3 N 13 20 7 11 1002.0 1002.0 0.0
21/08:00pm 10.0 6.0 5.0 71 2.3 N 15 22 8 12 1002.8 1002.8 0.0
21/07:30pm 10.5 6.4 4.6 67 2.7 N 15 20 8 11 1003.3 1003.3 0.0
21/07:00pm 10.5 7.1 4.2 65 2.8 N 11 20 6 11 1003.7 1003.7 0.0
21/06:30pm 10.4 6.7 4.3 66 2.7 N 13 19 7 10 1004.2 1004.3 0.0
21/06:00pm 10.3 7.0 4.5 67 2.6 NE 11 20 6 11 1004.5 1004.6 0.0
21/05:30pm 10.3 7.4 4.5 67 2.6 NNE 9 17 5 9 1004.9 1005.0 0.0
21/05:00pm 10.6 6.2 4.5 66 2.8 NE 17 26 9 14 1005.5 1005.6 0.0
21/04:30pm 10.8 7.5 4.3 64 2.9 NNE 11 19 6 10 1006.1 1006.2 0.0
21/04:00pm 11.0 8.1 4.7 65 2.9 NE 9 15 5 8 1006.4 1006.5 0.0
21/03:30pm 11.5 7.8 4.5 62 3.2 NNE 13 20 7 11 1006.8 1006.9 0.0
21/03:00pm 11.4 8.2 5.1 65 2.9 NE 11 17 6 9 1007.1 1007.2 0.0
21/02:30pm 11.7 8.0 4.2 60 3.4 N 13 20 7 11 1007.7 1007.8 0.0
21/02:00pm 13.3 8.9 4.5 55 4.1 N 17 26 9 14 1008.2 1008.3 0.0
21/01:30pm 13.1 8.0 4.3 55 4.0 NNE 20 30 11 16 1008.8 1008.9 0.0
21/01:00pm 13.1 8.3 4.8 57 3.8 NNE 19 24 10 13 1009.4 1009.5 0.0
21/12:30pm 13.1 9.3 6.0 62 3.4 N 15 28 8 15 1010.3 1010.4 0.0
21/12:00pm 12.8 8.4 5.0 59 3.6 N 17 26 9 14 1011.2 1011.3 0.0
21/11:30am 12.2 7.4 5.4 63 3.2 N 20 32 11 17 1011.4 1011.5 0.0
21/11:00am 11.3 6.3 4.7 64 3.0 N 20 32 11 17 1012.2 1012.3 0.0
21/10:30am 9.8 5.8 5.0 72 2.2 N 15 20 8 11 1013.0 1013.1 0.0
21/10:00am 10.4 6.8 5.0 69 2.5 N 13 20 7 11 1013.0 1013.1 0.0
21/09:30am 10.8 7.1 4.5 65 2.8 N 13 20 7 11 1013.3 1013.4 0.0
21/09:00am 9.9 5.9 5.1 72 2.2 N 15 19 8 10 1013.5 1013.6 0.0
21/08:30am 9.6 5.3 5.2 74 2.0 N 17 24 9 13 1013.6 1013.7 0.0
21/08:00am 8.7 3.6 3.9 72 2.1 N 20 28 11 15 1013.8 1013.9 0.0
21/07:30am 8.2 4.9 4.4 77 1.7 N 11 15 6 8 1014.0 1014.1 0.0
21/07:00am 7.9 3.5 4.7 80 1.4 NNE 17 20 9 11 1014.1 1014.2 0.0
21/06:30am 7.9 3.7 3.6 74 1.8 N 15 20 8 11 1014.7 1014.8 0.0
21/06:00am 8.7 4.2 4.3 74 1.9 N 17 24 9 13 1014.7 1014.8 0.0
21/05:30am 9.0 4.6 4.6 74 2.0 N 17 20 9 11 1014.8 1014.9 0.0

Latest Capital City Observations: Canberra | Sydney | Melbourne | Brisbane | Adelaide | Perth | Hobart | Darwin

Other Formats:

Comma delimited format used in spreadsheet applications
http://www.bom.gov.au/fwo/IDT60901/IDT60901.95967.axf

JavaScript Object Notation format (JSON) in row-major order
http://www.bom.gov.au/fwo/IDT60901/IDT60901.95967.json